Valerie, California
Current Conditions -  °F | °C
As of 6:56 AM on Friday 24 Oct 2014 (Local Time) from KNJK Reporting Station
Clear Clear  
Wind Chill: 64°   Ceiling: Unl
Heat Index: 64°   Visibility: 10mi
Dew Point: 41°   Wind: 5mph
Humidity: 43%   Direction: 190°S
Pressure: 29.93"   Gusts: NA
Location:  33.093°N, 116.06°W
Report Text: KNJK 241356Z 19004KT 10SM CLR 18/05 A2993 RMK AO2 SLP152 T01780050 $
Loading
Personal Weather Stations






























Interactive Weather Map
Tropical Storm Tracking
New forecast layout! Learn more

10-Day Weather Forecast

Advertisements
Track Severe Weather on mobile